Time;durP1;ratioP1;P1;durP2;ratioP2;P2;SDS_P1;SDS_P2;PMS_P1;PMS_P2;Temp;Humidity;BMP_temperature;BMP_pressure;BME280_temperature;BME280_humidity;BME280_pressure;Samples;Min_cycle;Max_cycle;Signal;HPM_P1;HPM_P2
2022/09/30 00:02:19;;;;;;;66.22;45.10;;;27.60;99.90;;;;;;5076287;28;20020;-63
2022/09/30 00:04:45;;;;;;;78.07;49.38;;;27.60;99.90;;;;;;5076286;28;20094;-64
2022/09/30 00:07:12;;;;;;;82.53;51.35;;;27.70;99.90;;;;;;5076269;28;20058;-65
2022/09/30 00:09:39;;;;;;;85.80;52.08;;;27.70;99.90;;;;;;5076011;28;20067;-63
2022/09/30 00:12:05;;;;;;;104.55;67.25;;;27.70;99.90;;;;;;5076228;28;20016;-64
2022/09/30 00:14:32;;;;;;;84.25;55.88;;;27.70;99.90;;;;;;5076090;28;20035;-64
2022/09/30 00:16:59;;;;;;;74.35;50.13;;;27.70;99.90;;;;;;5075913;28;20391;-65
2022/09/30 00:19:25;;;;;;;73.28;47.10;;;27.80;99.90;;;;;;5076025;28;20024;-64
2022/09/30 00:21:52;;;;;;;75.32;46.35;;;27.90;99.90;;;;;;5078651;28;20085;-64
2022/09/30 00:24:18;;;;;;;83.20;54.30;;;28.00;99.90;;;;;;5085594;28;20056;-69
2022/09/30 00:26:45;;;;;;;98.32;51.95;;;28.10;99.90;;;;;;5086834;28;20028;-69
2022/09/30 00:29:11;;;;;;;84.60;55.75;;;28.20;99.90;;;;;;5092288;28;20025;-68
2022/09/30 00:31:38;;;;;;;230.32;157.70;;;28.20;99.90;;;;;;5075830;28;20481;-69
2022/09/30 00:34:06;;;;;;;143.85;104.18;;;28.20;99.90;;;;;;5075799;28;20103;-69
2022/09/30 00:36:35;;;;;;;151.40;98.15;;;28.30;99.90;;;;;;5075781;28;20035;-68
2022/09/30 00:39:02;;;;;;;78.78;52.63;;;28.50;99.90;;;;;;5075642;28;20025;-68
2022/09/30 00:41:29;;;;;;;73.90;45.72;;;28.60;99.90;;;;;;5075712;28;20020;-68
2022/09/30 00:43:55;;;;;;;65.88;40.88;;;28.70;99.90;;;;;;5076094;28;20023;-68
2022/09/30 00:46:24;;;;;;;68.55;44.15;;;28.70;99.90;;;;;;5074647;28;20383;-69
2022/09/30 00:48:53;;;;;;;64.63;42.63;;;28.80;99.90;;;;;;5075553;28;20389;-68
2022/09/30 00:51:26;;;;;;;72.60;42.70;;;28.90;99.90;;;;;;5075588;28;20027;-68
2022/09/30 00:53:58;;;;;;;55.03;37.90;;;28.90;99.90;;;;;;5075344;28;20021;-70
2022/09/30 00:56:28;;;;;;;59.67;38.88;;;29.00;99.90;;;;;;5075461;28;20024;-68
2022/09/30 00:59:07;;;;;;;57.70;34.97;;;29.00;99.90;;;;;;5075351;28;20052;-69
2022/09/30 01:01:37;;;;;;;49.53;34.40;;;29.10;99.90;;;;;;5075254;28;20021;-69
2022/09/30 01:04:10;;;;;;;60.65;37.83;;;29.10;99.90;;;;;;5075629;28;20409;-69
2022/09/30 01:06:37;;;;;;;51.92;34.78;;;29.10;99.90;;;;;;5075038;28;20033;-68
2022/09/30 01:09:03;;;;;;;60.53;45.28;;;29.10;99.90;;;;;;5075195;28;20103;-69
2022/09/30 01:11:31;;;;;;;54.47;36.78;;;29.10;99.90;;;;;;5075219;28;20020;-68
2022/09/30 01:14:05;;;;;;;89.80;65.13;;;29.20;99.90;;;;;;5074958;28;20100;-68
2022/09/30 01:16:36;;;;;;;135.50;95.03;;;29.20;99.90;;;;;;5075077;28;20044;-68
2022/09/30 01:19:08;;;;;;;53.70;37.42;;;29.20;99.90;;;;;;5074921;28;20025;-70
2022/09/30 01:21:40;;;;;;;48.55;29.65;;;29.30;99.90;;;;;;5074795;28;20422;-70
2022/09/30 01:24:12;;;;;;;39.05;28.50;;;29.30;99.90;;;;;;5074927;28;20103;-69
2022/09/30 01:26:43;;;;;;;44.35;28.35;;;29.30;99.90;;;;;;5074762;28;20028;-70
2022/09/30 01:29:22;;;;;;;41.67;29.45;;;29.30;99.90;;;;;;5074317;28;20390;-69
2022/09/30 01:31:55;;;;;;;45.78;30.50;;;29.40;99.90;;;;;;5074613;28;20035;-69
2022/09/30 01:34:31;;;;;;;41.42;26.70;;;29.40;99.90;;;;;;5074920;28;20017;-68
2022/09/30 01:37:00;;;;;;;36.15;24.75;;;29.50;99.90;;;;;;5074485;28;20103;-70
2022/09/30 01:39:30;;;;;;;40.42;27.50;;;29.70;99.90;;;;;;5074597;28;20025;-71
2022/09/30 01:41:59;;;;;;;44.63;30.38;;;29.70;99.90;;;;;;5074473;28;20051;-71
2022/09/30 01:44:33;;;;;;;216.18;154.60;;;29.80;99.90;;;;;;5074364;28;20016;-72
2022/09/30 01:47:14;;;;;;;49.92;34.72;;;29.90;99.90;;;;;;5074389;28;20394;-66
2022/09/30 01:49:47;;;;;;;46.58;25.35;;;30.00;99.90;;;;;;5074241;28;20094;-66
2022/09/30 01:52:16;;;;;;;45.58;32.60;;;29.90;99.90;;;;;;5074421;28;20433;-67
2022/09/30 01:54:46;;;;;;;46.33;34.05;;;30.00;99.90;;;;;;5073835;28;20035;-66
2022/09/30 01:57:16;;;;;;;41.03;28.98;;;30.10;99.90;;;;;;5074212;28;20024;-66
2022/09/30 01:59:50;;;;;;;54.05;34.72;;;30.00;99.90;;;;;;5074012;28;20649;-66
2022/09/30 02:02:24;;;;;;;54.78;37.33;;;29.90;99.90;;;;;;5073942;28;20052;-66
2022/09/30 02:05:00;;;;;;;54.85;30.58;;;29.90;99.90;;;;;;5073985;28;20398;-66
2022/09/30 02:07:35;;;;;;;42.08;29.77;;;30.10;99.90;;;;;;5073872;28;20104;-66
2022/09/30 02:10:13;;;;;;;39.85;28.13;;;30.30;99.90;;;;;;5073886;28;20368;-66
2022/09/30 02:12:46;;;;;;;41.63;27.98;;;30.30;99.90;;;;;;5073847;28;20066;-67
2022/09/30 02:15:23;;;;;;;41.13;26.77;;;30.30;99.90;;;;;;5073990;28;20029;-67
2022/09/30 02:17:57;;;;;;;47.80;26.77;;;30.30;99.90;;;;;;5073329;28;20028;-66
2022/09/30 02:20:30;;;;;;;41.03;26.33;;;30.30;99.90;;;;;;5073707;28;20043;-66
2022/09/30 02:23:05;;;;;;;42.30;27.10;;;30.30;99.90;;;;;;5073471;28;20139;-66
2022/09/30 02:25:38;;;;;;;41.45;27.63;;;30.50;99.90;;;;;;5073548;28;20107;-66
2022/09/30 02:28:09;;;;;;;37.08;24.58;;;30.50;99.90;;;;;;5073752;28;20387;-66
2022/09/30 02:30:41;;;;;;;38.92;24.85;;;30.50;99.90;;;;;;5073442;28;20020;-66
2022/09/30 02:33:14;;;;;;;33.13;24.08;;;30.40;99.90;;;;;;5073571;28;20044;-66
2022/09/30 02:35:47;;;;;;;36.35;24.75;;;30.30;99.90;;;;;;5073679;28;20064;-66
2022/09/30 02:38:20;;;;;;;35.30;24.83;;;30.30;99.90;;;;;;5073365;28;20051;-66
2022/09/30 02:40:55;;;;;;;39.92;24.75;;;30.40;99.90;;;;;;5073536;28;20031;-66
2022/09/30 02:43:22;;;;;;;35.50;22.65;;;30.50;99.90;;;;;;5073320;28;20023;-66
2022/09/30 02:45:58;;;;;;;34.83;23.63;;;30.70;99.90;;;;;;5072833;28;20483;-66
2022/09/30 02:48:49;;;;;;;29.48;22.35;;;30.70;99.90;;;;;;5073345;28;20013;-66
2022/09/30 02:51:23;;;;;;;34.03;22.90;;;30.80;99.90;;;;;;5073230;28;20383;-67
2022/09/30 02:54:00;;;;;;;27.17;21.38;;;30.80;99.90;;;;;;5073213;28;20471;-67
2022/09/30 02:56:37;;;;;;;38.22;24.00;;;30.80;99.90;;;;;;5073361;28;20391;-67
2022/09/30 02:59:04;;;;;;;54.80;33.78;;;30.80;99.90;;;;;;5073006;28;20024;-67
2022/09/30 03:01:31;;;;;;;38.67;27.70;;;30.90;99.90;;;;;;5073072;28;20149;-67
2022/09/30 03:04:02;;;;;;;115.95;82.30;;;31.00;99.90;;;;;;5072885;28;20023;-67
2022/09/30 03:06:29;;;;;;;52.28;33.00;;;31.20;99.90;;;;;;5071672;28;20498;-67
2022/09/30 03:08:55;;;;;;;68.13;42.50;;;31.30;99.90;;;;;;5083650;28;20035;-67
2022/09/30 03:11:26;;;;;;;62.50;40.08;;;31.20;99.90;;;;;;5082752;28;20103;-66
2022/09/30 03:13:57;;;;;;;74.03;37.92;;;31.20;99.90;;;;;;5072971;28;20017;-66
2022/09/30 03:16:34;;;;;;;40.73;24.80;;;31.30;99.90;;;;;;5073050;28;20029;-67
2022/09/30 03:19:14;;;;;;;32.58;21.42;;;31.50;99.90;;;;;;5072775;28;20475;-68
2022/09/30 03:21:45;;;;;;;27.85;20.52;;;31.50;99.90;;;;;;5075956;28;20069;-68
2022/09/30 03:24:16;;;;;;;34.27;20.80;;;31.40;99.90;;;;;;5093172;28;20024;-72
2022/09/30 03:26:58;;;;;;;36.88;19.73;;;31.30;99.90;;;;;;5093155;28;20028;-69
2022/09/30 03:29:24;;;;;;;;;;;31.40;99.90;;;;;;5093569;28;20050;-69
2022/09/30 03:32:00;;;;;;;29.13;19.98;;;31.50;99.90;;;;;;5092837;28;19904;-69
2022/09/30 03:34:51;;;;;;;30.77;21.52;;;31.50;99.90;;;;;;5093098;28;20531;-70
2022/09/30 03:37:32;;;;;;;29.52;19.27;;;31.50;99.90;;;;;;5083341;28;20044;-69
2022/09/30 03:40:09;;;;;;;40.90;22.85;;;31.50;99.90;;;;;;5092862;28;20028;-69
2022/09/30 03:42:45;;;;;;;28.55;19.90;;;31.60;99.90;;;;;;5092966;28;20028;-69
2022/09/30 03:45:19;;;;;;;31.13;20.95;;;31.70;99.90;;;;;;5093078;28;20032;-70
2022/09/30 03:47:49;;;;;;;27.60;20.13;;;31.90;99.90;;;;;;5085057;28;20089;-69
2022/09/30 03:50:22;;;;;;;39.95;23.05;;;32.00;99.90;;;;;;5089316;28;20024;-68
2022/09/30 03:52:48;;;;;;;;;;;31.90;99.90;;;;;;5093615;28;20517;-68
2022/09/30 03:55:16;;;;;;;45.53;29.70;;;31.90;99.90;;;;;;5093147;28;20328;-69
2022/09/30 03:57:43;;;;;;;44.88;28.35;;;31.90;99.90;;;;;;5092910;28;20028;-69
2022/09/30 04:00:12;;;;;;;30.30;20.90;;;31.80;99.90;;;;;;5092939;28;20526;-69
2022/09/30 04:02:38;;;;;;;32.10;22.25;;;31.80;99.90;;;;;;5092974;28;20038;-69
2022/09/30 04:05:07;;;;;;;29.30;20.35;;;32.00;99.90;;;;;;5092958;28;20103;-68
2022/09/30 04:07:34;;;;;;;39.20;27.58;;;32.20;99.90;;;;;;5092767;28;20060;-69
2022/09/30 04:10:01;;;;;;;40.45;29.88;;;32.20;99.90;;;;;;5091509;28;20032;-69
2022/09/30 04:12:28;;;;;;;33.25;21.50;;;32.20;99.90;;;;;;5091136;28;20030;-69
2022/09/30 04:14:54;;;;;;;37.10;26.75;;;32.20;99.90;;;;;;5082177;28;20070;-69
2022/09/30 04:17:21;;;;;;;45.60;34.47;;;32.30;99.90;;;;;;5077294;28;20441;-68
2022/09/30 04:19:48;;;;;;;40.47;25.88;;;32.30;99.90;;;;;;5085386;28;20028;-68
2022/09/30 04:22:15;;;;;;;31.05;23.05;;;32.30;99.90;;;;;;5079982;28;20116;-68
2022/09/30 04:24:42;;;;;;;70.00;54.60;;;32.20;99.90;;;;;;5085569;28;20027;-68
2022/09/30 04:27:09;;;;;;;32.83;23.50;;;32.30;99.90;;;;;;5073259;28;20093;-67
2022/09/30 04:29:35;;;;;;;32.08;23.75;;;32.40;99.90;;;;;;5075302;28;20081;-68
2022/09/30 04:32:02;;;;;;;37.67;25.92;;;32.60;99.90;;;;;;5076028;28;20016;-67
2022/09/30 04:34:29;;;;;;;25.10;19.38;;;32.70;99.90;;;;;;5075527;28;20107;-68
2022/09/30 04:36:55;;;;;;;33.28;26.17;;;32.90;99.90;;;;;;5075366;28;20374;-70
2022/09/30 04:39:22;;;;;;;27.85;23.15;;;33.10;99.90;;;;;;5075688;28;20016;-69
2022/09/30 04:41:49;;;;;;;30.77;21.50;;;33.20;99.90;;;;;;5075408;28;20037;-68
2022/09/30 04:44:16;;;;;;;37.75;23.13;;;33.30;99.90;;;;;;5075324;28;20471;-68
2022/09/30 04:46:42;;;;;;;28.77;21.45;;;33.40;99.90;;;;;;5083063;28;20107;-69
2022/09/30 04:49:09;;;;;;;109.13;87.43;;;33.40;99.90;;;;;;5092782;28;20437;-67
2022/09/30 04:51:37;;;;;;;74.93;56.08;;;33.30;99.90;;;;;;5092888;28;20047;-69
2022/09/30 04:54:03;;;;;;;75.05;50.92;;;33.10;99.90;;;;;;5092717;28;20020;-68
2022/09/30 04:56:30;;;;;;;47.05;34.03;;;33.00;99.90;;;;;;5087416;28;20119;-69
2022/09/30 04:58:56;;;;;;;38.58;29.48;;;33.00;99.90;;;;;;5077142;28;20020;-71
2022/09/30 05:01:24;;;;;;;29.88;19.55;;;33.10;99.90;;;;;;5081890;28;20033;-69
2022/09/30 05:03:50;;;;;;;33.05;22.48;;;33.30;99.90;;;;;;5087504;28;21049;-69
2022/09/30 05:06:17;;;;;;;39.15;32.13;;;33.60;99.00;;;;;;5083969;28;20533;-68
2022/09/30 05:08:44;;;;;;;32.70;22.20;;;33.60;99.40;;;;;;5085363;28;20028;-70
2022/09/30 05:11:15;;;;;;;30.88;20.48;;;33.50;97.80;;;;;;5083406;28;20417;-68
2022/09/30 05:13:42;;;;;;;23.43;18.37;;;33.40;98.20;;;;;;5083732;28;20020;-67
2022/09/30 05:16:10;;;;;;;27.30;18.73;;;33.20;98.20;;;;;;5084975;28;20245;-69
2022/09/30 05:18:38;;;;;;;28.38;17.75;;;33.10;99.40;;;;;;5081798;28;20020;-71
2022/09/30 05:21:05;;;;;;;23.20;17.20;;;33.10;99.90;;;;;;5080446;28;20028;-71
2022/09/30 05:23:32;;;;;;;28.13;16.75;;;33.20;99.80;;;;;;5083774;28;20456;-71
2022/09/30 05:26:00;;;;;;;24.52;16.23;;;33.40;99.10;;;;;;5085361;28;20012;-70
2022/09/30 05:28:30;;;;;;;20.40;15.20;;;33.50;98.90;;;;;;5083968;28;20479;-69
2022/09/30 05:30:59;;;;;;;26.20;17.67;;;33.60;98.50;;;;;;5086760;28;20032;-70
2022/09/30 05:33:28;;;;;;;22.52;17.48;;;33.70;97.60;;;;;;5088527;28;20073;-69
2022/09/30 05:35:58;;;;;;;29.92;20.05;;;33.70;97.10;;;;;;5100851;28;20023;-71
2022/09/30 05:38:24;;;;;;;22.40;18.33;;;33.60;97.60;;;;;;5080048;28;20048;-71
2022/09/30 05:40:51;;;;;;;22.55;16.48;;;33.60;97.10;;;;;;5074890;28;20099;-70
2022/09/30 05:43:18;;;;;;;26.90;16.88;;;33.60;97.60;;;;;;5074544;28;20025;-68
2022/09/30 05:45:53;;;;;;;29.77;16.50;;;33.40;97.10;;;;;;5074771;28;20031;-69
2022/09/30 05:48:19;;;;;;;22.17;15.52;;;33.30;97.30;;;;;;5074559;28;20472;-69
2022/09/30 05:50:49;;;;;;;26.10;15.45;;;33.20;97.50;;;;;;5078148;28;20066;-71
2022/09/30 05:53:17;;;;;;;32.38;16.73;;;33.10;98.00;;;;;;5094844;28;20024;-69
2022/09/30 05:55:46;;;;;;;28.00;19.17;;;33.10;97.80;;;;;;5084843;28;20035;-69
2022/09/30 05:58:14;;;;;;;27.95;22.08;;;33.10;97.20;;;;;;5077047;28;20037;-69
2022/09/30 06:00:42;;;;;;;24.23;18.45;;;33.10;97.00;;;;;;5090393;28;20104;-69
2022/09/30 06:03:09;;;;;;;33.03;20.13;;;33.00;97.70;;;;;;5074661;28;20078;-66
2022/09/30 06:05:36;;;;;;;32.03;21.15;;;33.00;98.50;;;;;;5073964;28;20040;-66
2022/09/30 06:08:03;;;;;;;25.52;17.50;;;32.90;98.10;;;;;;5079593;28;20047;-65
2022/09/30 06:10:30;;;;;;;27.63;18.73;;;32.90;98.40;;;;;;5082816;28;20048;-68
2022/09/30 06:12:58;;;;;;;29.05;17.40;;;33.00;98.00;;;;;;5080607;28;20024;-65
2022/09/30 06:15:25;;;;;;;28.10;17.08;;;33.00;98.40;;;;;;5084053;28;20047;-68
2022/09/30 06:17:53;;;;;;;24.33;17.27;;;33.10;97.90;;;;;;5083501;28;20025;-67
2022/09/30 06:20:20;;;;;;;29.88;16.90;;;33.10;97.30;;;;;;5082068;28;20398;-66
2022/09/30 06:22:47;;;;;;;32.10;19.10;;;33.30;98.10;;;;;;5083132;28;20132;-65
2022/09/30 06:25:14;;;;;;;24.60;18.98;;;33.40;98.00;;;;;;5083578;28;20044;-66
2022/09/30 06:27:45;;;;;;;25.77;18.20;;;33.40;97.10;;;;;;5081916;28;20027;-66
2022/09/30 06:30:12;;;;;;;28.95;19.50;;;33.60;96.90;;;;;;5082843;28;20092;-65
2022/09/30 06:32:39;;;;;;;26.17;19.50;;;33.60;96.80;;;;;;5084191;28;20028;-68
2022/09/30 06:35:05;;;;;;;30.02;18.20;;;33.80;96.40;;;;;;5082396;28;20490;-67
2022/09/30 06:37:33;;;;;;;24.40;18.58;;;33.90;95.80;;;;;;5081412;28;20569;-66
2022/09/30 06:40:00;;;;;;;24.80;18.55;;;33.90;95.60;;;;;;5083853;28;20467;-67
2022/09/30 06:42:27;;;;;;;31.90;20.13;;;33.90;95.30;;;;;;5082305;28;20055;-66
2022/09/30 06:44:54;;;;;;;29.60;20.63;;;34.00;95.00;;;;;;5081749;28;20020;-68
2022/09/30 06:47:21;;;;;;;32.72;21.30;;;34.10;93.90;;;;;;5087647;28;20464;-67
2022/09/30 06:49:47;;;;;;;26.30;17.33;;;34.10;93.80;;;;;;5084383;28;20028;-64
2022/09/30 06:52:14;;;;;;;29.63;18.00;;;34.00;94.00;;;;;;5082811;28;20527;-66
2022/09/30 06:54:41;;;;;;;27.80;18.65;;;33.90;94.10;;;;;;5084221;28;20028;-67
2022/09/30 06:57:08;;;;;;;21.50;17.27;;;33.90;93.70;;;;;;5082545;28;20217;-66
2022/09/30 06:59:35;;;;;;;27.95;18.30;;;33.80;94.10;;;;;;5080601;28;20504;-64
2022/09/30 07:02:01;;;;;;;27.02;19.00;;;33.70;94.00;;;;;;5083567;28;20077;-65
2022/09/30 07:04:29;;;;;;;28.88;18.73;;;33.60;94.10;;;;;;5079520;28;20032;-64
2022/09/30 07:06:55;;;;;;;27.95;18.67;;;33.60;94.20;;;;;;5079339;28;20044;-63
2022/09/30 07:09:22;;;;;;;27.13;20.83;;;33.60;94.10;;;;;;5078658;28;20071;-64
2022/09/30 07:11:48;;;;;;;31.10;21.58;;;33.60;93.80;;;;;;5076312;28;20025;-64
2022/09/30 07:14:15;;;;;;;123.85;99.80;;;33.60;94.00;;;;;;5084520;28;20024;-66
2022/09/30 07:16:43;;;;;;;52.65;37.13;;;33.60;94.20;;;;;;5087334;28;20031;-65
2022/09/30 07:19:10;;;;;;;31.20;22.38;;;33.60;93.60;;;;;;5093524;28;20040;-65
2022/09/30 07:21:37;;;;;;;25.85;19.63;;;33.60;93.20;;;;;;5092630;28;20394;-65
2022/09/30 07:24:04;;;;;;;27.35;18.17;;;33.60;92.90;;;;;;5093194;28;20107;-65
2022/09/30 07:26:31;;;;;;;24.20;17.55;;;33.70;93.60;;;;;;5092962;28;20115;-65
2022/09/30 07:28:58;;;;;;;36.13;19.80;;;33.60;93.60;;;;;;5093254;28;20021;-65
2022/09/30 07:31:26;;;;;;;35.78;25.08;;;33.60;94.70;;;;;;5093077;28;20031;-65
2022/09/30 07:33:54;;;;;;;33.72;23.38;;;33.50;95.80;;;;;;5092906;28;20028;-65
2022/09/30 07:36:26;;;;;;;31.15;21.52;;;33.50;96.00;;;;;;5092971;28;20467;-64
2022/09/30 07:38:53;;;;;;;33.00;21.60;;;33.40;96.40;;;;;;5085733;28;20484;-64
2022/09/30 07:41:26;;;;;;;74.25;54.65;;;33.30;96.90;;;;;;5088904;28;20035;-64
2022/09/30 07:43:55;;;;;;;45.20;33.83;;;33.30;97.20;;;;;;5093352;28;20035;-67
2022/09/30 07:46:27;;;;;;;39.17;26.05;;;33.30;97.10;;;;;;5092466;28;20505;-68
2022/09/30 07:48:56;;;;;;;33.25;23.33;;;33.30;97.10;;;;;;5092804;28;20047;-67
2022/09/30 07:51:29;;;;;;;63.13;45.10;;;33.40;97.50;;;;;;5092819;28;20027;-67
2022/09/30 07:53:58;;;;;;;28.70;21.77;;;33.30;97.30;;;;;;5092628;28;20428;-67
2022/09/30 07:56:26;;;;;;;36.25;23.02;;;33.30;97.60;;;;;;5096330;28;20057;-68
2022/09/30 07:58:56;;;;;;;32.83;21.73;;;33.30;96.70;;;;;;5096901;28;20111;-67
2022/09/30 08:01:23;;;;;;;27.17;19.83;;;33.20;96.60;;;;;;5096995;28;20040;-68
2022/09/30 08:03:54;;;;;;;27.67;17.80;;;33.30;96.50;;;;;;5088816;28;20039;-68
2022/09/30 08:06:21;;;;;;;34.72;20.33;;;33.30;96.10;;;;;;5086372;28;20028;-68
2022/09/30 08:08:51;;;;;;;27.15;18.77;;;33.30;96.30;;;;;;5084678;28;20413;-68
2022/09/30 08:11:18;;;;;;;34.70;20.95;;;33.30;96.50;;;;;;5084320;28;20020;-66
2022/09/30 08:13:49;;;;;;;41.85;21.92;;;33.30;96.40;;;;;;5081501;28;20025;-68
2022/09/30 08:16:15;;;;;;;31.23;15.18;;;33.30;95.60;;;;;;5084622;28;20012;-69
2022/09/30 08:18:42;;;;;;;31.95;16.70;;;33.10;96.60;;;;;;5086177;28;20012;-66
2022/09/30 08:21:08;;;;;;;34.33;15.82;;;32.80;97.40;;;;;;5084493;28;20020;-67
2022/09/30 08:23:35;;;;;;;30.88;15.05;;;32.60;98.20;;;;;;5084319;28;20110;-70
2022/09/30 08:26:06;;;;;;;22.65;13.60;;;32.40;98.00;;;;;;5085837;28;20103;-66
2022/09/30 08:28:34;;;;;;;30.02;16.55;;;32.30;98.60;;;;;;5084756;28;20569;-67
2022/09/30 08:31:04;;;;;;;32.42;16.55;;;32.10;99.70;;;;;;5083696;28;20028;-70
2022/09/30 08:33:31;;;;;;;30.08;17.95;;;31.90;99.90;;;;;;5084927;28;20020;-70
2022/09/30 08:36:09;;;;;;;32.53;17.83;;;31.80;99.90;;;;;;5085572;28;20074;-67
2022/09/30 08:38:36;;;;;;;28.13;15.70;;;31.80;99.90;;;;;;5083940;28;20016;-70
2022/09/30 08:41:07;;;;;;;26.33;16.42;;;31.70;99.90;;;;;;5083405;28;20024;-67
2022/09/30 08:43:56;;;;;;;27.05;17.50;;;31.70;99.90;;;;;;5084506;28;20107;-67
2022/09/30 08:46:28;;;;;;;30.63;18.20;;;31.60;99.90;;;;;;5035246;28;20083;-69
2022/09/30 08:49:17;;;;;;;24.30;16.52;;;31.60;99.90;;;;;;5084178;28;20032;-69
2022/09/30 08:51:47;;;;;;;24.58;17.05;;;31.50;99.90;;;;;;5053804;28;20035;-69
2022/09/30 08:54:20;;;;;;;27.65;17.58;;;31.50;99.90;;;;;;5075258;28;20035;-65
2022/09/30 08:56:47;;;;;;;24.33;16.70;;;31.50;99.90;;;;;;5078817;28;20072;-65
2022/09/30 08:59:17;;;;;;;31.13;15.93;;;31.60;99.90;;;;;;5083791;28;20736;-64
2022/09/30 09:01:48;;;;;;;31.63;18.25;;;31.60;99.90;;;;;;5075783;28;20509;-65
2022/09/30 09:04:14;;;;;;;34.80;20.38;;;31.50;99.90;;;;;;5075282;28;20039;-64
2022/09/30 09:06:46;;;;;;;34.72;20.83;;;31.50;99.90;;;;;;5074942;28;20021;-65
2022/09/30 09:09:20;;;;;;;43.10;24.33;;;31.50;99.90;;;;;;5075401;28;20052;-64
2022/09/30 09:11:56;;;;;;;47.75;26.60;;;31.50;99.90;;;;;;5075257;28;20021;-64
2022/09/30 09:14:23;;;;;;;48.28;30.30;;;31.50;99.90;;;;;;5075242;28;20050;-64
2022/09/30 09:16:59;;;;;;;29.98;18.33;;;31.50;99.90;;;;;;5075246;28;20017;-65
2022/09/30 09:19:36;;;;;;;29.08;19.20;;;31.40;99.90;;;;;;5075117;28;20031;-65
2022/09/30 09:22:03;;;;;;;36.22;19.88;;;31.30;99.90;;;;;;5075040;28;20041;-65
2022/09/30 09:24:39;;;;;;;32.15;18.65;;;31.30;99.90;;;;;;5075026;28;20036;-65
2022/09/30 09:27:17;;;;;;;28.38;17.73;;;31.30;99.90;;;;;;5074939;28;20414;-65
2022/09/30 09:29:49;;;;;;;34.97;23.05;;;31.30;99.90;;;;;;5074718;28;20035;-64
2022/09/30 09:32:17;;;;;;;35.85;23.48;;;31.40;99.90;;;;;;5074943;28;20029;-64
2022/09/30 09:34:50;;;;;;;41.20;27.75;;;31.40;99.90;;;;;;5074821;28;20055;-65
2022/09/30 09:37:20;;;;;;;41.45;28.05;;;31.40;99.90;;;;;;5074925;28;20387;-64
2022/09/30 09:39:59;;;;;;;59.65;31.85;;;31.40;99.90;;;;;;5074949;28;20493;-64
2022/09/30 09:42:33;;;;;;;50.08;25.20;;;31.50;99.90;;;;;;5074902;28;20127;-65
2022/09/30 09:45:03;;;;;;;58.85;37.17;;;31.50;99.90;;;;;;5074694;28;20024;-66
2022/09/30 09:47:30;;;;;;;70.15;38.38;;;31.50;99.90;;;;;;5074863;28;20405;-65
2022/09/30 09:49:59;;;;;;;162.57;109.57;;;31.50;99.90;;;;;;5079183;28;20063;-63
2022/09/30 09:52:31;;;;;;;54.22;26.63;;;31.50;99.90;;;;;;5079439;28;20021;-65
2022/09/30 09:54:59;;;;;;;39.30;22.40;;;31.50;99.90;;;;;;5092146;28;20016;-67
2022/09/30 09:57:31;;;;;;;156.55;120.45;;;31.50;99.90;;;;;;5086857;28;20020;-64
2022/09/30 10:01:04;;;;;;;78.13;48.90;;;31.50;99.90;;;;;;5088959;28;20463;-64
2022/09/30 10:03:00;;;;;;;59.40;36.65;;;31.50;99.90;;;;;;5082006;28;20040;-65
2022/09/30 10:05:31;;;;;;;38.85;23.58;;;31.50;99.90;;;;;;5082485;28;20028;-68
2022/09/30 10:08:18;;;;;;;60.13;36.50;;;31.50;99.90;;;;;;5073032;28;20028;-67
2022/09/30 10:10:49;;;;;;;113.65;74.75;;;31.50;99.90;;;;;;5091539;28;20053;-65
2022/09/30 10:13:19;;;;;;;946.10;778.13;;;31.50;99.90;;;;;;5078877;28;20027;-65
2022/09/30 10:15:47;;;;;;;711.65;588.35;;;31.50;99.90;;;;;;5081468;28;20061;-67
2022/09/30 10:18:24;;;;;;;949.15;733.85;;;31.50;99.90;;;;;;5081051;28;20016;-65
2022/09/30 10:20:56;;;;;;;214.15;145.50;;;31.40;99.90;;;;;;5081471;28;20103;-66
2022/09/30 10:23:27;;;;;;;88.20;50.50;;;31.30;99.90;;;;;;5079989;28;20449;-66
2022/09/30 10:25:55;;;;;;;80.32;49.03;;;31.30;99.90;;;;;;5082154;28;20035;-66
2022/09/30 10:28:26;;;;;;;96.00;56.60;;;31.20;99.90;;;;;;5079158;28;20021;-65
2022/09/30 10:30:59;;;;;;;102.18;60.70;;;31.20;99.90;;;;;;5081608;28;20418;-66
2022/09/30 10:33:40;;;;;;;73.53;45.28;;;31.00;99.90;;;;;;5079941;28;20017;-64
2022/09/30 10:36:10;;;;;;;59.33;32.30;;;31.00;99.90;;;;;;5080679;28;20494;-65
2022/09/30 10:38:48;;;;;;;221.30;147.57;;;30.90;99.90;;;;;;5081661;28;20337;-68
2022/09/30 10:41:24;;;;;;;244.07;166.25;;;30.80;99.90;;;;;;5081725;28;20478;-68
2022/09/30 10:43:53;;;;;;;103.78;66.93;;;30.80;99.90;;;;;;5084320;28;20510;-66
2022/09/30 10:46:23;;;;;;;74.35;50.22;;;30.80;99.90;;;;;;5083149;28;20020;-66
2022/09/30 10:48:53;;;;;;;90.65;57.30;;;30.70;99.90;;;;;;5081081;28;20028;-66
2022/09/30 10:51:33;;;;;;;1227.10;886.75;;;30.60;99.90;;;;;;5083662;28;20032;-66
2022/09/30 10:54:00;;;;;;;170.00;115.32;;;30.60;99.90;;;;;;5081563;28;20031;-65
2022/09/30 10:56:45;;;;;;;483.80;400.65;;;30.50;99.90;;;;;;5083759;28;20056;-65
2022/09/30 10:59:21;;;;;;;96.18;51.75;;;30.60;99.90;;;;;;5080489;28;20463;-65
2022/09/30 11:01:54;;;;;;;55.80;37.95;;;30.50;99.90;;;;;;5079132;28;20532;-64
2022/09/30 11:04:25;;;;;;;42.35;25.85;;;30.40;99.90;;;;;;5080799;28;20123;-64
2022/09/30 11:07:14;;;;;;;46.67;25.42;;;30.20;99.90;;;;;;5083565;28;20057;-64
2022/09/30 11:09:57;;;;;;;39.25;23.83;;;30.00;99.90;;;;;;5075080;28;20036;-65
2022/09/30 11:12:32;;;;;;;49.60;27.27;;;29.90;99.90;;;;;;5083197;28;20073;-64
2022/09/30 11:15:04;;;;;;;45.50;26.88;;;29.80;99.90;;;;;;5082909;28;20024;-65
2022/09/30 11:17:36;;;;;;;35.53;24.20;;;29.70;99.90;;;;;;5082486;28;20021;-66
2022/09/30 11:20:12;;;;;;;43.72;25.00;;;29.60;99.90;;;;;;5081199;28;20016;-64
2022/09/30 11:22:43;;;;;;;35.90;20.55;;;29.60;99.90;;;;;;5081125;28;20047;-65
2022/09/30 11:25:14;;;;;;;32.33;17.63;;;29.60;99.90;;;;;;5082291;28;20036;-64
2022/09/30 11:28:03;;;;;;;31.98;20.75;;;29.60;99.90;;;;;;5083054;28;20026;-63
2022/09/30 11:30:40;;;;;;;33.47;20.48;;;29.70;99.90;;;;;;5066507;28;20032;-65
2022/09/30 11:33:11;;;;;;;31.55;19.80;;;29.70;99.90;;;;;;5082885;28;20027;-63
2022/09/30 11:35:41;;;;;;;31.75;17.42;;;29.80;99.90;;;;;;5085099;28;20020;-64
2022/09/30 11:38:27;;;;;;;34.42;19.45;;;29.90;99.90;;;;;;5084654;28;20032;-63
2022/09/30 11:40:58;;;;;;;38.67;21.58;;;29.90;99.90;;;;;;5087405;28;20040;-63
2022/09/30 11:43:30;;;;;;;31.45;17.50;;;30.00;99.90;;;;;;5077452;28;20028;-64
2022/09/30 11:46:02;;;;;;;25.90;14.75;;;29.90;99.90;;;;;;5076978;28;20075;-63
2022/09/30 11:48:42;;;;;;;31.13;23.10;;;29.90;99.90;;;;;;5076934;28;20107;-64
2022/09/30 11:51:49;;;;;;;23.63;15.48;;;29.70;99.90;;;;;;5079514;28;20028;-63
2022/09/30 11:54:20;;;;;;;26.17;16.55;;;29.80;99.90;;;;;;5062605;28;20032;-64
2022/09/30 11:56:53;;;;;;;27.38;19.35;;;29.70;99.90;;;;;;5089774;28;20020;-64
2022/09/30 11:59:27;;;;;;;25.58;16.33;;;29.60;99.90;;;;;;5097537;28;20032;-62
2022/09/30 12:02:00;;;;;;;39.03;24.50;;;29.50;99.90;;;;;;5097203;28;20162;-65
2022/09/30 12:04:32;;;;;;;40.97;23.17;;;29.50;99.90;;;;;;5097323;28;20032;-64
2022/09/30 12:07:07;;;;;;;34.30;22.23;;;29.50;99.90;;;;;;5097317;28;20051;-64
2022/09/30 12:10:00;;;;;;;41.60;21.75;;;29.50;99.90;;;;;;5089168;28;20483;-63
2022/09/30 12:12:27;;;;;;;37.47;23.23;;;29.50;99.90;;;;;;5095689;28;20024;-63
2022/09/30 12:15:00;;;;;;;37.10;24.88;;;29.50;99.90;;;;;;5096835;28;20385;-63
2022/09/30 12:17:30;;;;;;;41.05;26.75;;;29.60;99.90;;;;;;5096777;28;20164;-63
2022/09/30 12:20:04;;;;;;;46.42;29.38;;;29.70;99.90;;;;;;5096512;28;20028;-63
2022/09/30 12:22:39;;;;;;;37.20;23.65;;;29.70;99.90;;;;;;5096400;28;20498;-63
2022/09/30 12:25:10;;;;;;;31.52;19.95;;;29.70;99.90;;;;;;5096654;28;20024;-65
2022/09/30 12:27:47;;;;;;;29.27;18.20;;;29.70;99.90;;;;;;5096606;28;20020;-65
2022/09/30 12:30:19;;;;;;;31.65;18.80;;;29.70;99.90;;;;;;5097048;28;20398;-65
2022/09/30 12:33:00;;;;;;;40.10;23.38;;;29.70;99.90;;;;;;5096231;28;20026;-64
2022/09/30 12:35:32;;;;;;;56.50;27.00;;;29.70;99.90;;;;;;5096798;28;20020;-64
2022/09/30 12:38:04;;;;;;;48.50;25.45;;;29.50;99.90;;;;;;5088366;28;20028;-62
2022/09/30 12:40:39;;;;;;;46.70;24.02;;;29.50;99.90;;;;;;5085521;28;20351;-63
2022/09/30 12:43:12;;;;;;;43.60;22.85;;;29.40;99.90;;;;;;5075876;28;20103;-63
2022/09/30 12:45:42;;;;;;;40.03;23.30;;;29.40;99.90;;;;;;5076200;28;20020;-63